Terminal Aerodrome Forecast
Issued by NWS Albany, NY

Home | Current Version | Previous Version | Text Only | Print | Product List | Glossary On
Versions: 1 2 3 4 5 6 7 8 9 10 11 12 13
724
FTUS41 KALY 231720
TAFGFL
TAF
KGFL 231720Z 2318/2418 22009KT P6SM VCSH BKN050
      TEMPO 2318/2320 2SM +SHRA BR BKN020 OVC040
     FM232100 19006KT P6SM VCSH BKN045
     FM240800 22006KT P6SM VCSH BKN025
     FM241400 28009KT P6SM SCT060
      AMD NOT SKED=

USA.gov is the U.S. government's official web portal to all federal, state and local government web resources and services.